Terminal Aerodrome Forecast
Issued by NWS Anchorage, AK

Home | Current Version | Previous Version | Text Only | Print | Product List | Glossary On
Versions: 1 2 3 4 5 6 7 8 9 10 11 12 13 14 15 16 17 18 19 20 21 22 23 24 25 26 27 28 29 30 31 32 33 34 35 36
000
FTAK31 PANC 241957 AAB
TAFANC
TAF AMD
PANC 241957Z 2420/2524 18012G20KT P6SM SCT070 BKN200
     FM250300 19007KT P6SM -RA SCT025 OVC045
     FM250900 17005KT 6SM -RA BR SCT015 OVC025
     FM251500 VRB03KT 4SM -RA BR SCT008 OVC015
     FM252000 VRB04KT P6SM -RA SCT015 OVC030=

USA.gov is the U.S. government's official web portal to all federal, state and local government web resources and services.